Time;durP1;ratioP1;P1;durP2;ratioP2;P2;SDS_P1;SDS_P2;PMS_P1;PMS_P2;Temp;Humidity;BMP_temperature;BMP_pressure;BME280_temperature;BME280_humidity;BME280_pressure;Samples;Min_cycle;Max_cycle;Signal;HPM_P1;HPM_P2
2022/08/01 00:01:47;;;;;;;4.60;3.10;;;21.10;91.00;;;;;;5067557;28;20451;-70
2022/08/01 00:04:14;;;;;;;10.33;3.77;;;21.10;91.10;;;;;;5067782;28;20454;-70
2022/08/01 00:06:40;;;;;;;4.73;3.10;;;21.10;91.20;;;;;;5067890;28;20498;-72
2022/08/01 00:09:07;;;;;;;5.40;3.37;;;21.10;91.30;;;;;;5067897;28;20466;-70
2022/08/01 00:11:34;;;;;;;3.33;2.67;;;21.10;91.20;;;;;;5061000;28;20980;-70
2022/08/01 00:14:01;;;;;;;3.40;2.90;;;21.10;91.40;;;;;;5067884;28;20452;-71
2022/08/01 00:16:28;;;;;;;3.80;3.00;;;21.10;91.40;;;;;;5067808;28;20848;-70
2022/08/01 00:18:56;;;;;;;3.27;2.97;;;21.10;91.50;;;;;;5068422;28;20451;-73
2022/08/01 00:21:23;;;;;;;3.27;2.50;;;21.10;91.40;;;;;;5067142;28;20477;-72
2022/08/01 00:23:50;;;;;;;4.47;3.50;;;21.20;91.50;;;;;;5068438;28;20480;-71
2022/08/01 00:26:17;;;;;;;3.63;3.03;;;21.20;91.50;;;;;;5067440;28;20491;-71
2022/08/01 00:28:43;;;;;;;3.87;3.13;;;21.20;91.50;;;;;;5067274;28;20450;-70
2022/08/01 00:31:10;;;;;;;3.83;2.90;;;21.10;91.70;;;;;;5053659;28;20455;-70
2022/08/01 00:33:37;;;;;;;4.43;3.30;;;21.10;91.80;;;;;;5049871;28;20456;-70
2022/08/01 00:36:05;;;;;;;8.03;3.53;;;21.10;92.00;;;;;;5049552;28;20480;-70
2022/08/01 00:38:32;;;;;;;4.03;3.03;;;21.10;92.00;;;;;;5058617;28;20454;-69
2022/08/01 00:40:59;;;;;;;3.87;3.40;;;21.00;92.00;;;;;;5068725;28;20787;-68
2022/08/01 00:43:26;;;;;;;4.60;3.20;;;21.10;92.10;;;;;;5069063;28;20451;-71
2022/08/01 00:45:53;;;;;;;4.00;3.40;;;21.10;92.30;;;;;;5068528;28;20487;-71
2022/08/01 00:48:19;;;;;;;3.70;3.30;;;21.10;92.30;;;;;;5068860;28;20857;-73
2022/08/01 00:50:47;;;;;;;4.80;3.27;;;21.20;92.20;;;;;;5068029;28;20457;-70
2022/08/01 00:53:15;;;;;;;3.53;3.07;;;21.20;92.30;;;;;;5069031;28;20451;-71
2022/08/01 00:55:42;;;;;;;3.80;3.17;;;21.20;92.50;;;;;;5068491;28;20538;-72
2022/08/01 00:58:09;;;;;;;3.20;2.90;;;21.10;92.50;;;;;;5056422;28;20459;-71
2022/08/01 01:00:36;;;;;;;3.30;3.00;;;21.10;92.70;;;;;;5054290;28;20941;-73
2022/08/01 01:03:04;;;;;;;5.93;3.07;;;21.10;92.70;;;;;;5049429;28;20539;-70
2022/08/01 01:05:36;;;;;;;4.60;3.53;;;21.00;92.90;;;;;;5049181;28;20474;-71
2022/08/01 01:08:05;;;;;;;4.27;3.60;;;21.00;93.10;;;;;;5049690;28;20452;-70
2022/08/01 01:10:41;;;;;;;4.57;3.37;;;21.00;93.30;;;;;;5048627;28;20451;-71
2022/08/01 01:13:12;;;;;;;4.97;3.30;;;21.00;93.30;;;;;;5049453;28;20958;-70
2022/08/01 01:15:45;;;;;;;3.23;2.90;;;21.10;93.60;;;;;;5048950;28;21121;-71
2022/08/01 01:18:17;;;;;;;6.53;3.30;;;21.10;93.80;;;;;;5049607;28;20942;-70
2022/08/01 01:20:52;;;;;;;3.97;3.30;;;21.00;93.80;;;;;;5048780;28;20451;-71
2022/08/01 01:23:35;;;;;;;4.20;3.00;;;21.00;94.20;;;;;;5055749;28;20853;-69
2022/08/01 01:26:21;;;;;;;4.50;3.60;;;21.00;94.30;;;;;;5067955;28;20491;-71
2022/08/01 01:29:04;;;;;;;4.13;3.00;;;21.00;94.50;;;;;;5060622;28;20440;-70
2022/08/01 01:31:37;;;;;;;4.27;3.40;;;21.00;95.00;;;;;;5048311;28;20474;-71
2022/08/01 01:34:05;;;;;;;4.70;3.30;;;20.90;94.80;;;;;;5055995;28;20451;-71
2022/08/01 01:36:33;;;;;;;5.00;3.87;;;20.90;95.00;;;;;;5067812;28;21017;-72
2022/08/01 01:39:01;;;;;;;3.83;3.50;;;20.90;95.20;;;;;;5068629;28;20469;-72
2022/08/01 01:41:30;;;;;;;5.43;3.50;;;20.80;95.50;;;;;;5067474;28;20443;-70
2022/08/01 01:43:58;;;;;;;3.63;3.33;;;20.80;96.10;;;;;;5068255;28;20456;-71
2022/08/01 01:46:27;;;;;;;4.67;3.77;;;20.80;95.90;;;;;;5071138;28;20486;-70
2022/08/01 01:48:56;;;;;;;3.70;3.13;;;20.80;96.20;;;;;;5071761;28;20462;-70
2022/08/01 01:51:26;;;;;;;3.70;3.20;;;20.80;96.30;;;;;;5071102;28;20895;-70
2022/08/01 01:53:54;;;;;;;4.27;3.53;;;20.80;96.60;;;;;;5071996;28;20462;-70
2022/08/01 01:56:22;;;;;;;3.60;3.27;;;20.80;96.60;;;;;;5071398;28;20521;-69
2022/08/01 01:58:52;;;;;;;5.00;3.70;;;20.80;96.80;;;;;;5062132;28;20455;-70
2022/08/01 02:01:20;;;;;;;4.77;3.73;;;20.70;97.00;;;;;;5055551;28;20452;-72
2022/08/01 02:03:50;;;;;;;6.00;3.83;;;20.70;97.40;;;;;;5052553;28;20942;-71
2022/08/01 02:06:17;;;;;;;3.20;2.80;;;20.70;97.60;;;;;;5052131;28;20496;-71
2022/08/01 02:08:46;;;;;;;3.80;3.33;;;20.70;97.70;;;;;;5052272;28;21316;-70
2022/08/01 02:11:22;;;;;;;4.10;3.63;;;20.70;97.90;;;;;;5051633;28;20456;-71
2022/08/01 02:13:59;;;;;;;3.70;3.30;;;20.70;98.10;;;;;;5051933;28;20463;-69
2022/08/01 02:16:29;;;;;;;4.00;3.17;;;20.60;98.30;;;;;;5052018;28;20862;-71
2022/08/01 02:18:57;;;;;;;4.83;3.53;;;20.70;98.50;;;;;;5052170;28;20458;-71
2022/08/01 02:21:28;;;;;;;4.73;4.23;;;20.60;98.50;;;;;;5051264;28;20455;-71
2022/08/01 02:24:01;;;;;;;5.20;3.87;;;20.60;98.90;;;;;;5052053;28;20452;-69
2022/08/01 02:26:28;;;;;;;5.20;3.23;;;20.60;99.00;;;;;;5064398;28;20487;-71
2022/08/01 02:29:00;;;;;;;4.13;3.73;;;20.50;99.20;;;;;;5059083;28;20463;-70
2022/08/01 02:31:29;;;;;;;4.73;3.60;;;20.50;99.40;;;;;;5056910;28;20446;-71
2022/08/01 02:34:03;;;;;;;4.20;3.37;;;20.50;99.60;;;;;;5051944;28;20448;-71
2022/08/01 02:36:31;;;;;;;3.80;3.40;;;20.50;99.80;;;;;;5051394;28;20480;-70
2022/08/01 02:38:59;;;;;;;4.13;3.23;;;20.40;99.90;;;;;;5051625;28;20451;-70
2022/08/01 02:41:27;;;;;;;3.70;3.30;;;20.30;99.90;;;;;;5050984;28;20459;-71
2022/08/01 02:43:59;;;;;;;4.50;3.40;;;20.30;99.90;;;;;;5051582;28;21285;-71
2022/08/01 02:46:32;;;;;;;3.93;3.50;;;20.30;99.90;;;;;;5051363;28;20520;-70
2022/08/01 02:49:03;;;;;;;3.83;3.43;;;20.30;99.90;;;;;;5051681;28;20436;-71
2022/08/01 02:51:31;;;;;;;3.50;3.20;;;20.30;99.90;;;;;;5050930;28;20836;-70
2022/08/01 02:54:02;;;;;;;3.80;3.47;;;20.30;99.90;;;;;;5051775;28;20439;-69
2022/08/01 02:56:35;;;;;;;6.30;3.87;;;20.30;99.90;;;;;;5054242;28;20459;-72
2022/08/01 02:59:04;;;;;;;4.43;3.43;;;20.20;99.90;;;;;;5063929;28;20444;-70
2022/08/01 03:01:34;;;;;;;4.07;3.23;;;20.20;99.90;;;;;;5051360;28;20451;-72
2022/08/01 03:04:04;;;;;;;4.50;3.40;;;20.10;99.90;;;;;;5051431;28;20452;-72
2022/08/01 03:06:33;;;;;;;4.20;3.80;;;20.00;99.90;;;;;;5051079;28;20484;-72
2022/08/01 03:09:02;;;;;;;4.80;3.53;;;20.00;99.90;;;;;;5051562;28;20549;-70
2022/08/01 03:11:31;;;;;;;4.47;3.50;;;20.00;99.90;;;;;;5063406;28;20439;-70
2022/08/01 03:14:02;;;;;;;3.50;3.20;;;20.00;99.90;;;;;;5070522;28;20458;-71
2022/08/01 03:16:31;;;;;;;4.80;3.40;;;20.00;99.90;;;;;;5064162;28;20463;-70
2022/08/01 03:18:59;;;;;;;4.97;3.80;;;20.00;99.90;;;;;;5070934;28;20442;-72
2022/08/01 03:21:29;;;;;;;4.40;3.27;;;19.90;99.90;;;;;;5070175;28;20937;-71
2022/08/01 03:23:58;;;;;;;3.70;2.93;;;19.80;99.90;;;;;;5071133;28;20439;-71
2022/08/01 03:26:28;;;;;;;3.63;3.23;;;19.80;99.90;;;;;;5070238;28;20478;-70
2022/08/01 03:28:57;;;;;;;3.80;3.40;;;19.70;99.90;;;;;;5062580;28;20925;-71
2022/08/01 03:31:25;;;;;;;3.77;3.37;;;19.70;99.90;;;;;;5055603;28;20783;-72
2022/08/01 03:33:53;;;;;;;3.87;3.43;;;19.80;99.90;;;;;;5050988;28;20925;-70
2022/08/01 03:36:24;;;;;;;5.00;3.43;;;19.70;99.90;;;;;;5050429;28;20941;-71
2022/08/01 03:38:56;;;;;;;5.10;3.27;;;19.70;99.90;;;;;;5050916;28;20605;-71
2022/08/01 03:41:27;;;;;;;6.50;3.30;;;19.60;99.90;;;;;;5049808;28;20436;-70
2022/08/01 03:43:58;;;;;;;4.50;3.30;;;19.70;99.90;;;;;;5050793;28;20443;-70
2022/08/01 03:46:30;;;;;;;4.47;3.90;;;19.70;99.90;;;;;;5050268;28;20898;-70
2022/08/01 03:49:02;;;;;;;5.83;3.37;;;19.80;99.90;;;;;;5050649;28;20470;-71
2022/08/01 03:51:31;;;;;;;3.67;3.17;;;19.80;99.90;;;;;;5049768;28;20443;-71
2022/08/01 03:54:00;;;;;;;3.90;3.50;;;19.80;99.90;;;;;;5050429;28;20451;-69
2022/08/01 03:56:30;;;;;;;3.17;2.87;;;19.70;99.90;;;;;;5054167;28;20466;-72
2022/08/01 03:58:57;;;;;;;4.50;3.20;;;19.70;99.90;;;;;;5059773;28;20475;-72
2022/08/01 04:01:24;;;;;;;5.10;3.20;;;19.70;99.90;;;;;;5049758;28;20938;-70
2022/08/01 04:03:51;;;;;;;4.93;3.50;;;19.70;99.90;;;;;;5050299;28;20444;-72
2022/08/01 04:06:18;;;;;;;4.60;3.40;;;19.70;99.90;;;;;;5049751;28;20468;-71
2022/08/01 04:08:55;;;;;;;4.10;3.43;;;19.70;99.90;;;;;;5049715;28;20570;-70
2022/08/01 04:11:24;;;;;;;4.60;3.53;;;19.80;99.90;;;;;;5062450;28;20439;-71
2022/08/01 04:13:52;;;;;;;4.07;2.97;;;19.70;99.90;;;;;;5069129;28;20447;-71
2022/08/01 04:16:19;;;;;;;4.30;2.63;;;19.60;99.90;;;;;;5068907;28;20454;-70
2022/08/01 04:18:45;;;;;;;3.47;2.60;;;19.70;99.90;;;;;;5068967;28;20431;-71
2022/08/01 04:21:13;;;;;;;5.00;3.40;;;19.70;99.90;;;;;;5068276;28;20446;-71
2022/08/01 04:23:41;;;;;;;4.13;3.00;;;19.80;99.90;;;;;;5069323;28;20454;-71
2022/08/01 04:26:09;;;;;;;5.20;3.37;;;19.80;99.90;;;;;;5068673;28;20459;-72
2022/08/01 04:28:40;;;;;;;3.80;3.23;;;19.90;99.90;;;;;;5066859;28;20478;-71
2022/08/01 04:31:11;;;;;;;3.17;2.77;;;19.90;99.90;;;;;;5052435;28;20443;-71
2022/08/01 04:33:41;;;;;;;4.43;3.57;;;20.00;99.90;;;;;;5049729;28;20436;-71
2022/08/01 04:36:10;;;;;;;3.70;2.97;;;20.10;99.90;;;;;;5049001;28;20481;-71
2022/08/01 04:38:39;;;;;;;5.60;3.37;;;20.20;99.90;;;;;;5049948;28;20436;-70
2022/08/01 04:41:07;;;;;;;5.77;3.10;;;20.20;99.90;;;;;;5049175;28;20436;-72
2022/08/01 04:43:34;;;;;;;3.20;2.87;;;20.30;99.90;;;;;;5049747;28;20444;-71
2022/08/01 04:46:04;;;;;;;3.70;3.40;;;20.40;99.90;;;;;;5049097;28;20452;-72
2022/08/01 04:48:33;;;;;;;4.17;3.17;;;20.40;99.90;;;;;;5050020;28;20484;-69
2022/08/01 04:51:00;;;;;;;6.37;3.27;;;20.50;99.90;;;;;;5048838;28;20886;-72
2022/08/01 04:53:27;;;;;;;3.53;3.00;;;20.60;99.90;;;;;;5049803;28;20467;-71
2022/08/01 04:55:55;;;;;;;4.73;3.50;;;20.60;99.90;;;;;;5049116;28;20483;-72
2022/08/01 04:58:22;;;;;;;5.40;3.20;;;20.70;99.90;;;;;;5059824;28;20991;-71
2022/08/01 05:00:49;;;;;;;3.90;3.13;;;20.70;99.90;;;;;;5054841;28;20477;-71
2022/08/01 05:03:17;;;;;;;3.60;2.93;;;20.70;99.90;;;;;;5049546;28;20546;-73
2022/08/01 05:05:44;;;;;;;3.90;3.30;;;20.70;99.90;;;;;;5049194;28;20456;-69
2022/08/01 05:08:10;;;;;;;4.43;3.60;;;20.80;99.90;;;;;;5049305;28;20966;-71
2022/08/01 05:10:38;;;;;;;3.70;2.90;;;20.80;99.90;;;;;;5048768;28;20455;-71
2022/08/01 05:13:06;;;;;;;4.40;3.33;;;20.80;99.90;;;;;;5049017;28;20447;-70
2022/08/01 05:15:33;;;;;;;4.20;2.80;;;20.80;99.90;;;;;;5049107;28;20455;-71
2022/08/01 05:17:59;;;;;;;5.53;3.30;;;20.80;99.90;;;;;;5049454;28;20478;-71
2022/08/01 05:20:27;;;;;;;4.63;3.50;;;20.90;99.90;;;;;;5050782;28;20451;-71
2022/08/01 05:22:54;;;;;;;3.80;2.90;;;21.00;99.90;;;;;;5053210;28;20452;-72
2022/08/01 05:25:21;;;;;;;7.50;3.10;;;21.10;99.90;;;;;;5052874;28;20448;-71
2022/08/01 05:27:50;;;;;;;3.80;3.30;;;21.20;99.90;;;;;;5065131;28;20494;-71
2022/08/01 05:30:17;;;;;;;5.23;2.87;;;21.30;99.90;;;;;;5057572;28;20831;-71
2022/08/01 05:32:43;;;;;;;3.17;2.60;;;21.30;99.90;;;;;;5053222;28;20517;-70
2022/08/01 05:35:10;;;;;;;3.40;2.70;;;21.40;99.90;;;;;;5052810;28;20460;-71
2022/08/01 05:37:39;;;;;;;5.40;2.93;;;21.40;99.90;;;;;;5052853;28;20515;-71
2022/08/01 05:40:06;;;;;;;4.60;2.93;;;21.40;99.90;;;;;;5051913;28;20447;-71
2022/08/01 05:42:33;;;;;;;4.10;3.00;;;21.50;99.90;;;;;;5052834;28;20946;-73
2022/08/01 05:45:00;;;;;;;4.37;3.10;;;21.50;99.90;;;;;;5052407;28;20462;-70
2022/08/01 05:47:27;;;;;;;3.80;2.87;;;21.60;99.90;;;;;;5054372;28;20886;-70
2022/08/01 05:49:54;;;;;;;5.90;3.43;;;21.70;99.90;;;;;;5052330;28;20452;-72
2022/08/01 05:52:20;;;;;;;3.60;2.80;;;21.90;99.90;;;;;;5053068;28;20480;-70
2022/08/01 05:54:48;;;;;;;3.23;2.93;;;22.10;99.90;;;;;;5052365;28;20452;-70
2022/08/01 05:57:15;;;;;;;4.67;2.70;;;22.20;99.90;;;;;;5061456;28;21196;-71
2022/08/01 05:59:42;;;;;;;3.30;2.50;;;22.30;99.90;;;;;;5063217;28;20858;-71
2022/08/01 06:02:09;;;;;;;4.10;2.40;;;22.30;99.90;;;;;;5052760;28;20447;-71
2022/08/01 06:04:36;;;;;;;4.20;2.67;;;22.30;99.90;;;;;;5052402;28;20925;-72
2022/08/01 06:07:03;;;;;;;4.97;2.30;;;22.40;99.90;;;;;;5052123;28;20463;-70
2022/08/01 06:09:30;;;;;;;5.80;2.60;;;22.40;99.90;;;;;;5053072;28;20454;-70
2022/08/01 06:11:58;;;;;;;3.60;2.70;;;22.30;99.90;;;;;;5052391;28;20876;-70
2022/08/01 06:14:25;;;;;;;2.93;2.30;;;22.30;99.90;;;;;;5051935;28;20448;-71
2022/08/01 06:16:52;;;;;;;3.20;2.40;;;22.40;99.90;;;;;;5052189;28;20470;-71
2022/08/01 06:19:19;;;;;;;4.00;2.27;;;22.40;99.90;;;;;;5052151;28;20444;-71
2022/08/01 06:21:45;;;;;;;3.53;2.83;;;22.50;99.90;;;;;;5051123;28;20448;-71
2022/08/01 06:24:12;;;;;;;3.40;2.20;;;22.50;99.90;;;;;;5052257;28;20444;-73
2022/08/01 06:26:39;;;;;;;3.00;2.40;;;22.50;99.90;;;;;;5057218;28;20467;-72
2022/08/01 06:29:07;;;;;;;2.73;2.10;;;22.60;99.90;;;;;;5059266;28;20482;-70
2022/08/01 06:31:34;;;;;;;2.90;2.03;;;22.70;99.90;;;;;;5051114;28;20444;-71
2022/08/01 06:34:01;;;;;;;3.90;2.30;;;22.70;99.90;;;;;;5051819;28;20945;-72
2022/08/01 06:36:28;;;;;;;4.40;2.97;;;22.80;99.90;;;;;;5051223;28;21012;-71
2022/08/01 06:38:55;;;;;;;2.57;1.90;;;22.80;99.90;;;;;;5052023;28;20446;-72
2022/08/01 06:41:21;;;;;;;2.70;2.10;;;22.90;99.90;;;;;;5051179;28;20440;-72
2022/08/01 06:43:48;;;;;;;3.00;2.10;;;23.00;99.90;;;;;;5051617;28;20444;-71
2022/08/01 06:46:16;;;;;;;2.83;1.80;;;23.00;99.90;;;;;;5051202;28;20504;-72
2022/08/01 06:48:43;;;;;;;3.23;1.53;;;23.10;99.90;;;;;;5051470;28;20475;-71
2022/08/01 06:51:13;;;;;;;3.60;1.93;;;23.20;99.90;;;;;;5050781;28;20455;-72
2022/08/01 06:53:40;;;;;;;2.60;1.90;;;23.30;99.90;;;;;;5051675;28;20475;-73
2022/08/01 06:56:09;;;;;;;2.93;1.67;;;23.50;99.90;;;;;;5052008;28;20466;-71
2022/08/01 06:58:36;;;;;;;4.07;1.70;;;23.60;99.90;;;;;;5067242;28;20432;-71
2022/08/01 07:01:05;;;;;;;3.13;1.90;;;23.70;99.90;;;;;;5053387;28;20443;-71
2022/08/01 07:03:34;;;;;;;3.03;1.67;;;23.80;99.90;;;;;;5051148;28;20444;-72
2022/08/01 07:06:01;;;;;;;4.03;2.30;;;23.90;99.90;;;;;;5051134;28;20460;-70
2022/08/01 07:08:28;;;;;;;3.30;1.93;;;24.00;99.90;;;;;;5051623;28;20483;-71
2022/08/01 07:10:55;;;;;;;3.07;2.10;;;24.20;99.90;;;;;;5050565;28;20452;-72
2022/08/01 07:13:24;;;;;;;3.30;2.03;;;24.40;99.90;;;;;;5051373;28;20489;-73
2022/08/01 07:15:52;;;;;;;3.00;1.97;;;24.50;99.90;;;;;;5050845;28;20454;-72
2022/08/01 07:18:19;;;;;;;2.53;2.03;;;24.70;99.90;;;;;;5051158;28;20497;-72
2022/08/01 07:20:47;;;;;;;2.53;1.70;;;24.80;99.90;;;;;;5050394;28;20440;-71
2022/08/01 07:23:14;;;;;;;5.30;1.90;;;24.70;99.90;;;;;;5051372;28;20451;-71
2022/08/01 07:25:41;;;;;;;4.33;2.23;;;24.80;99.90;;;;;;5050558;28;20440;-70
2022/08/01 07:28:08;;;;;;;3.30;2.03;;;24.80;99.90;;;;;;5058307;28;20475;-72
2022/08/01 07:30:35;;;;;;;4.60;2.03;;;24.70;99.90;;;;;;5059436;28;20440;-71
2022/08/01 07:33:02;;;;;;;2.40;1.80;;;24.70;99.90;;;;;;5050812;28;20530;-69
2022/08/01 07:35:29;;;;;;;3.83;2.00;;;24.70;99.90;;;;;;5055962;28;20451;-70
2022/08/01 07:37:57;;;;;;;4.30;1.93;;;24.40;99.90;;;;;;5061540;28;20459;-73
2022/08/01 07:40:24;;;;;;;3.90;1.93;;;24.40;99.90;;;;;;5058403;28;20930;-72
2022/08/01 07:42:51;;;;;;;3.50;1.70;;;24.40;99.90;;;;;;5048750;28;20914;-71
2022/08/01 07:45:17;;;;;;;2.50;1.93;;;24.50;99.90;;;;;;5049583;28;20540;-70
2022/08/01 07:47:46;;;;;;;3.40;1.97;;;24.50;99.90;;;;;;5052320;28;21756;-71
2022/08/01 07:50:13;;;;;;;3.13;2.00;;;24.60;99.90;;;;;;5063285;28;20446;-72
2022/08/01 07:52:40;;;;;;;5.53;1.90;;;24.70;99.90;;;;;;5061699;28;20443;-73
2022/08/01 07:55:10;;;;;;;3.10;2.20;;;24.70;99.90;;;;;;5049438;28;20542;-72
2022/08/01 07:57:37;;;;;;;3.40;1.83;;;24.90;99.90;;;;;;5061769;28;21521;-72
2022/08/01 08:00:08;;;;;;;4.90;2.27;;;25.10;99.90;;;;;;5052704;28;20452;-68
2022/08/01 08:02:34;;;;;;;3.80;2.13;;;25.40;99.90;;;;;;5048980;28;20889;-73
2022/08/01 08:05:01;;;;;;;3.20;2.00;;;25.60;99.90;;;;;;5048915;28;20209;-71
2022/08/01 08:07:28;;;;;;;3.83;2.00;;;25.50;99.90;;;;;;5054385;28;20501;-70
2022/08/01 08:09:55;;;;;;;3.50;2.53;;;25.70;99.90;;;;;;5056999;28;20490;-69
2022/08/01 08:12:23;;;;;;;3.40;2.00;;;25.80;99.90;;;;;;5060862;28;20474;-71
2022/08/01 08:14:50;;;;;;;2.40;1.90;;;25.80;99.90;;;;;;5066137;28;20474;-71
2022/08/01 08:17:17;;;;;;;5.13;2.10;;;25.60;99.90;;;;;;5060317;28;20478;-72
2022/08/01 08:19:44;;;;;;;4.77;2.40;;;25.50;99.90;;;;;;5064479;28;20798;-71
2022/08/01 08:22:11;;;;;;;4.63;3.13;;;25.60;99.90;;;;;;5062124;28;20538;-70
2022/08/01 08:24:38;;;;;;;2.73;2.00;;;25.70;99.90;;;;;;5062134;28;20933;-70
2022/08/01 08:27:05;;;;;;;5.30;2.30;;;25.80;99.90;;;;;;5051744;28;20491;-71
2022/08/01 08:29:34;;;;;;;2.50;1.93;;;25.70;99.90;;;;;;5060556;28;20482;-71
2022/08/01 08:32:01;;;;;;;5.27;3.00;;;25.60;99.90;;;;;;5066539;28;20445;-71
2022/08/01 08:34:29;;;;;;;4.63;2.37;;;25.50;99.90;;;;;;5059143;28;20454;-70
2022/08/01 08:36:57;;;;;;;4.53;2.13;;;25.60;99.90;;;;;;5056832;28;20482;-71
2022/08/01 08:39:24;;;;;;;4.10;2.10;;;25.80;99.90;;;;;;5068287;28;20447;-70
2022/08/01 08:41:51;;;;;;;3.33;2.30;;;26.00;99.90;;;;;;5055340;28;20448;-70
2022/08/01 08:44:20;;;;;;;3.47;2.20;;;26.10;99.90;;;;;;5068212;28;20443;-70
2022/08/01 08:46:51;;;;;;;3.97;2.07;;;26.20;99.70;;;;;;5068554;28;20853;-70
2022/08/01 08:49:20;;;;;;;6.07;2.53;;;26.30;99.20;;;;;;5067041;28;20487;-72
2022/08/01 08:51:50;;;;;;;3.33;2.03;;;26.30;99.10;;;;;;5050380;28;20452;-70
2022/08/01 08:54:20;;;;;;;6.10;2.97;;;26.40;99.00;;;;;;5068189;28;20972;-70
2022/08/01 08:56:48;;;;;;;3.80;2.60;;;26.40;98.60;;;;;;5059766;28;20886;-72
2022/08/01 08:59:15;;;;;;;4.20;2.40;;;26.30;99.20;;;;;;5064154;28;20704;-72
2022/08/01 09:01:42;;;;;;;5.73;2.60;;;26.40;98.70;;;;;;5067182;28;20446;-71
2022/08/01 09:04:11;;;;;;;3.80;3.30;;;26.40;99.20;;;;;;5066115;28;20445;-71
2022/08/01 09:06:38;;;;;;;5.47;2.53;;;26.20;98.60;;;;;;5067533;28;20474;-70
2022/08/01 09:09:06;;;;;;;4.00;2.70;;;26.00;99.50;;;;;;5065830;28;20482;-69
2022/08/01 09:11:34;;;;;;;5.03;2.70;;;25.90;99.30;;;;;;5062748;28;20455;-70
2022/08/01 09:14:09;;;;;;;4.40;2.80;;;26.10;99.20;;;;;;5067489;28;21240;-71
2022/08/01 09:16:37;;;;;;;4.30;2.57;;;26.30;99.10;;;;;;5065972;28;20471;-70
2022/08/01 09:19:13;;;;;;;3.97;2.87;;;26.30;98.60;;;;;;5061134;28;20443;-71
2022/08/01 09:21:55;;;;;;;3.97;2.90;;;26.30;99.30;;;;;;5068864;28;20447;-72
2022/08/01 09:24:22;;;;;;;3.00;2.23;;;26.50;98.70;;;;;;5059961;28;20455;-71
2022/08/01 09:26:50;;;;;;;3.50;2.60;;;26.70;98.30;;;;;;5061426;28;21504;-70
2022/08/01 09:29:21;;;;;;;3.30;2.70;;;27.00;97.90;;;;;;5057480;28;20479;-73
2022/08/01 09:31:49;;;;;;;6.43;3.53;;;27.20;97.10;;;;;;5063254;28;20458;-71
2022/08/01 09:34:24;;;;;;;6.17;3.67;;;27.30;97.00;;;;;;5058623;28;20536;-72
2022/08/01 09:36:54;;;;;;;5.00;3.03;;;27.30;97.20;;;;;;5064823;28;20475;-73
2022/08/01 09:39:26;;;;;;;7.60;4.83;;;27.30;96.90;;;;;;5066778;28;20455;-70
2022/08/01 09:41:55;;;;;;;5.33;3.90;;;27.40;96.60;;;;;;5066731;28;20830;-71
2022/08/01 09:44:38;;;;;;;7.17;3.83;;;27.30;96.40;;;;;;5067724;28;21257;-72
2022/08/01 09:47:05;;;;;;;7.77;4.97;;;27.00;97.00;;;;;;5067194;28;20455;-72
2022/08/01 09:49:35;;;;;;;5.30;4.73;;;26.70;97.50;;;;;;5061622;28;20475;-69
2022/08/01 09:52:12;;;;;;;5.90;4.80;;;26.80;97.80;;;;;;5064194;28;20439;-70
2022/08/01 09:54:39;;;;;;;5.30;4.27;;;27.20;96.90;;;;;;5063033;28;20533;-71
2022/08/01 09:57:14;;;;;;;4.50;4.10;;;27.40;97.20;;;;;;5066211;28;20467;-70
2022/08/01 09:59:43;;;;;;;6.47;3.70;;;28.00;96.30;;;;;;5067580;28;20814;-69
2022/08/01 10:02:13;;;;;;;4.80;4.30;;;28.70;94.70;;;;;;5058054;28;20472;-74
2022/08/01 10:04:47;;;;;;;6.73;3.93;;;29.00;93.60;;;;;;5063639;28;20442;-73
2022/08/01 10:07:15;;;;;;;6.37;4.90;;;28.80;93.10;;;;;;5065606;28;20466;-72
2022/08/01 10:09:43;;;;;;;4.03;3.43;;;28.70;93.50;;;;;;5066691;28;20483;-72
2022/08/01 10:12:11;;;;;;;5.63;4.70;;;28.20;93.90;;;;;;5061662;28;20448;-71
2022/08/01 10:14:40;;;;;;;4.20;3.80;;;28.10;93.90;;;;;;5064439;28;20472;-71
2022/08/01 10:17:09;;;;;;;4.57;3.80;;;28.00;94.80;;;;;;5066617;28;20988;-70
2022/08/01 10:19:37;;;;;;;4.30;3.70;;;28.70;93.40;;;;;;5064420;28;20466;-71
2022/08/01 10:22:08;;;;;;;4.17;3.77;;;29.20;92.30;;;;;;5063646;28;20841;-74
2022/08/01 10:24:38;;;;;;;5.83;3.90;;;29.50;91.80;;;;;;5063527;28;20459;-75
2022/08/01 10:27:06;;;;;;;4.40;2.90;;;29.70;91.50;;;;;;5062800;28;20475;-71
2022/08/01 10:29:38;;;;;;;4.90;3.17;;;29.50;90.50;;;;;;5067012;28;20512;-72
2022/08/01 10:32:08;;;;;;;3.40;2.50;;;29.70;90.80;;;;;;5066291;28;20443;-73
2022/08/01 10:34:36;;;;;;;4.10;2.80;;;29.70;90.20;;;;;;5066936;28;20443;-71
2022/08/01 10:37:03;;;;;;;3.83;2.60;;;30.00;90.40;;;;;;5063227;28;20478;-73
2022/08/01 10:39:34;;;;;;;4.30;3.13;;;30.30;89.60;;;;;;5064396;28;20933;-73
2022/08/01 10:42:01;;;;;;;3.70;2.63;;;30.50;88.00;;;;;;5065491;28;22117;-71
2022/08/01 10:44:30;;;;;;;3.27;2.97;;;30.50;88.00;;;;;;5064472;28;20439;-72
2022/08/01 10:47:02;;;;;;;3.40;2.90;;;29.80;88.00;;;;;;5065194;28;20478;-73
2022/08/01 10:49:36;;;;;;;3.70;3.10;;;29.50;90.10;;;;;;5066579;28;20866;-72
2022/08/01 10:52:03;;;;;;;6.53;4.03;;;29.40;90.10;;;;;;5065288;28;20443;-72
2022/08/01 10:54:39;;;;;;;4.30;3.03;;;29.20;89.30;;;;;;5062460;28;20451;-74
2022/08/01 10:57:06;;;;;;;3.13;2.67;;;29.10;89.60;;;;;;5064726;28;20489;-73
2022/08/01 10:59:34;;;;;;;5.60;3.20;;;29.10;89.40;;;;;;5067342;28;20981;-72
2022/08/01 11:02:02;;;;;;;3.97;3.57;;;29.20;89.20;;;;;;5065326;28;20470;-72
2022/08/01 11:04:49;;;;;;;4.17;3.70;;;29.40;88.30;;;;;;5065138;28;20479;-71
2022/08/01 11:07:19;;;;;;;3.73;3.37;;;29.40;87.00;;;;;;5065359;28;20570;-74
2022/08/01 11:09:50;;;;;;;8.53;5.33;;;29.60;87.50;;;;;;5062597;28;20488;-75
2022/08/01 11:12:17;;;;;;;4.77;4.33;;;29.30;87.80;;;;;;5065476;28;20647;-72
2022/08/01 11:15:25;;;;;;;5.20;4.30;;;28.90;89.00;;;;;;5064720;28;20451;-71
2022/08/01 11:17:55;;;;;;;5.10;3.40;;;28.70;89.40;;;;;;5063000;28;20466;-71
2022/08/01 11:20:23;;;;;;;6.50;3.00;;;29.00;87.80;;;;;;5062945;28;20448;-70
2022/08/01 11:23:19;;;;;;;3.67;2.73;;;29.30;87.10;;;;;;5065598;28;20443;-70
2022/08/01 11:26:15;;;;;;;5.17;3.40;;;29.60;85.90;;;;;;5062734;28;21011;-71
2022/08/01 11:28:44;;;;;;;3.40;2.87;;;30.20;84.50;;;;;;5065445;28;20443;-71
2022/08/01 11:31:29;;;;;;;3.20;2.90;;;30.40;83.00;;;;;;5063743;28;20439;-71
2022/08/01 11:33:56;;;;;;;4.60;2.90;;;30.20;82.30;;;;;;5063860;28;20501;-72
2022/08/01 11:36:23;;;;;;;3.47;2.80;;;29.90;84.00;;;;;;5064968;28;20559;-73
2022/08/01 11:39:16;;;;;;;6.70;3.00;;;29.90;85.20;;;;;;5122435;27;20521;-74
2022/08/01 11:41:45;;;;;;;3.30;3.00;;;30.30;84.80;;;;;;5114802;28;20460;-72
2022/08/01 11:44:14;;;;;;;3.10;2.80;;;30.70;84.00;;;;;;5098206;28;20445;-72
2022/08/01 11:47:11;;;;;;;3.20;2.70;;;30.80;82.70;;;;;;5102257;28;20464;-71
2022/08/01 11:49:50;;;;;;;3.27;2.93;;;31.10;81.70;;;;;;5111526;28;20429;-71
2022/08/01 11:52:19;;;;;;;4.00;2.60;;;30.70;81.50;;;;;;5118838;27;20528;-71
2022/08/01 11:54:49;;;;;;;3.37;2.97;;;30.60;82.50;;;;;;5111823;28;20444;-70
2022/08/01 11:57:20;;;;;;;3.30;2.53;;;31.20;81.00;;;;;;5116495;28;20484;-73
2022/08/01 11:59:49;;;;;;;3.33;3.00;;;30.90;79.40;;;;;;5117461;27;20455;-71
2022/08/01 12:02:18;;;;;;;4.03;3.13;;;30.00;82.00;;;;;;5103151;27;20454;-73
2022/08/01 12:04:46;;;;;;;4.80;3.00;;;29.70;83.70;;;;;;5107935;28;20453;-71
2022/08/01 12:07:14;;;;;;;5.90;2.90;;;30.00;83.40;;;;;;5105090;28;21057;-72
2022/08/01 12:09:41;;;;;;;4.00;3.13;;;31.00;81.70;;;;;;5106203;27;20641;-71
2022/08/01 12:12:10;;;;;;;3.57;2.90;;;31.50;79.50;;;;;;5105990;27;20449;-69
2022/08/01 12:14:37;;;;;;;2.83;2.40;;;31.10;79.20;;;;;;5111108;28;20450;-71
2022/08/01 12:17:04;;;;;;;3.30;2.30;;;31.70;78.70;;;;;;5112971;27;21093;-70
2022/08/01 12:19:31;;;;;;;3.70;2.73;;;32.40;76.60;;;;;;5096067;27;21040;-71
2022/08/01 12:22:09;;;;;;;3.20;2.50;;;32.70;74.40;;;;;;5108766;27;20944;-69
2022/08/01 12:24:36;;;;;;;2.80;2.40;;;32.20;74.60;;;;;;5102072;28;20474;-72
2022/08/01 12:27:03;;;;;;;4.00;2.53;;;31.50;76.60;;;;;;5112057;27;20473;-69
2022/08/01 12:29:36;;;;;;;3.27;2.90;;;30.90;78.50;;;;;;5103840;28;20453;-70
2022/08/01 12:32:03;;;;;;;3.13;2.50;;;30.50;80.90;;;;;;5109471;27;20563;-74
2022/08/01 12:34:33;;;;;;;6.90;3.50;;;30.40;81.90;;;;;;5104842;28;20959;-72
2022/08/01 12:37:02;;;;;;;4.77;2.77;;;30.40;81.40;;;;;;5105147;27;20472;-71
2022/08/01 12:39:33;;;;;;;3.83;2.57;;;30.80;81.10;;;;;;5105241;28;20445;-72
2022/08/01 12:42:00;;;;;;;4.80;3.03;;;31.50;77.80;;;;;;5105113;28;20441;-71
2022/08/01 12:44:28;;;;;;;2.80;2.50;;;31.90;76.80;;;;;;5109654;28;20437;-73
2022/08/01 12:46:57;;;;;;;3.87;2.30;;;32.50;75.40;;;;;;5101679;28;20479;-73
2022/08/01 12:49:24;;;;;;;4.83;2.80;;;31.80;75.40;;;;;;5101319;28;20449;-73
2022/08/01 12:51:52;;;;;;;3.90;2.50;;;31.60;77.70;;;;;;5100642;28;20491;-71
2022/08/01 12:54:18;;;;;;;4.70;2.80;;;32.40;75.30;;;;;;5090233;28;20450;-72
2022/08/01 12:56:45;;;;;;;3.33;2.80;;;33.10;73.50;;;;;;5093199;28;20487;-73
2022/08/01 12:59:24;;;;;;;4.17;2.80;;;33.50;70.90;;;;;;5098596;28;20993;-72